Time;durP1;ratioP1;P1;durP2;ratioP2;P2;SDS_P1;SDS_P2;PMS_P1;PMS_P2;Temp;Humidity;BMP_temperature;BMP_pressure;BME280_temperature;BME280_humidity;BME280_pressure;Samples;Min_cycle;Max_cycle;Signal;HPM_P1;HPM_P2
2021/04/07 00:01:28;;;;;;;3.17;1.02;;;;;;;18.65;50.99;101422.53;5043971;28;20072;-73
2021/04/07 00:03:54;;;;;;;2.80;1.08;;;;;;;18.64;50.77;101412.06;5028848;28;20072;-72
2021/04/07 00:06:19;;;;;;;1.38;0.60;;;;;;;18.68;50.99;101413.81;5042508;28;20024;-72
2021/04/07 00:08:48;;;;;;;1.67;0.90;;;;;;;18.65;50.93;101417.31;5013725;28;20429;-72
2021/04/07 00:11:14;;;;;;;1.50;0.77;;;;;;;18.65;50.98;101422.53;5031509;28;20036;-72
2021/04/07 00:13:40;;;;;;;1.55;0.90;;;;;;;18.63;51.02;101416.41;5010086;28;20033;-72
2021/04/07 00:16:06;;;;;;;4.63;1.23;;;;;;;18.59;50.98;101406.78;5026289;28;20063;-73
2021/04/07 00:18:31;;;;;;;2.38;0.70;;;;;;;18.63;50.90;101405.94;5020555;28;20036;-73
2021/04/07 00:20:57;;;;;;;1.88;0.95;;;;;;;18.59;50.78;101412.03;5023321;28;20033;-72
2021/04/07 00:23:22;;;;;;;1.88;1.25;;;;;;;18.45;50.82;101391.00;5027764;28;20033;-73
2021/04/07 00:25:47;;;;;;;2.03;1.33;;;;;;;18.60;50.89;101419.03;5043049;28;20028;-72
2021/04/07 00:28:18;;;;;;;1.77;0.60;;;;;;;18.62;50.90;101419.91;5041859;28;20037;-73
2021/04/07 00:30:44;;;;;;;2.17;0.90;;;;;;;18.61;50.68;101423.41;5056333;28;20111;-72
2021/04/07 00:33:09;;;;;;;2.63;0.93;;;;;;;18.60;50.72;101411.16;5033435;28;20115;-73
2021/04/07 00:35:35;;;;;;;1.27;0.93;;;;;;;18.59;50.99;101421.63;5043691;28;20041;-72
2021/04/07 00:38:00;;;;;;;1.60;0.60;;;;;;;18.56;50.66;101414.63;5032036;28;20524;-72
2021/04/07 00:40:26;;;;;;;2.35;1.00;;;;;;;18.59;50.68;101429.50;5042732;28;20394;-72
2021/04/07 00:42:53;;;;;;;2.00;0.93;;;;;;;18.59;50.50;101451.31;5031186;28;20025;-74
2021/04/07 00:45:19;;;;;;;1.75;0.80;;;;;;;18.59;50.52;101435.59;5007213;28;20029;-72
2021/04/07 00:47:47;;;;;;;3.38;0.90;;;;;;;18.54;50.49;101416.38;5025442;28;20041;-74
2021/04/07 00:50:13;;;;;;;1.60;0.80;;;;;;;18.54;50.55;101409.38;5026482;28;20033;-74
2021/04/07 00:52:39;;;;;;;1.77;0.70;;;;;;;18.49;50.69;101407.59;5040479;28;20012;-73
2021/04/07 00:55:06;;;;;;;3.15;0.93;;;;;;;18.56;50.50;101425.09;5047056;28;20051;-73
2021/04/07 00:57:32;;;;;;;1.52;0.93;;;;;;;18.57;50.42;101429.44;5030134;28;20044;-73
2021/04/07 00:59:58;;;;;;;2.72;0.90;;;;;;;18.59;50.50;101419.00;5014450;28;20078;-74
2021/04/07 01:02:24;;;;;;;1.77;0.80;;;;;;;18.57;50.26;101412.00;5046264;28;20025;-74
2021/04/07 01:04:51;;;;;;;2.28;0.77;;;;;;;18.57;50.41;101406.75;5027835;28;20386;-73
2021/04/07 01:07:16;;;;;;;1.60;0.95;;;;;;;18.51;50.28;101405.88;5045585;28;20043;-74
2021/04/07 01:09:42;;;;;;;1.77;0.60;;;;;;;18.49;50.74;101402.38;5044988;28;20363;-73
2021/04/07 01:12:09;;;;;;;1.88;0.82;;;;;;;18.49;50.36;101402.38;5045051;28;20108;-73
2021/04/07 01:14:36;;;;;;;1.35;0.95;;;;;;;18.52;50.34;101408.50;5028280;28;20029;-73
2021/04/07 01:17:03;;;;;;;2.15;0.82;;;;;;;18.56;50.41;101415.47;5061724;28;20025;-73
2021/04/07 01:19:29;;;;;;;2.03;0.98;;;;;;;18.56;50.34;101425.09;5078980;28;20025;-73
2021/04/07 01:21:55;;;;;;;1.27;0.50;;;;;;;18.45;50.25;101422.41;5045328;28;20040;-72
2021/04/07 01:24:22;;;;;;;1.38;0.70;;;;;;;18.52;50.35;101442.53;5044772;28;20443;-73
2021/04/07 01:26:48;;;;;;;2.20;0.80;;;;;;;18.48;50.44;101426.78;5012216;28;20032;-74
2021/04/07 01:29:13;;;;;;;2.40;1.23;;;;;;;18.50;50.24;101435.53;5024276;28;20039;-76
2021/04/07 01:31:47;;;;;;;2.45;0.90;;;;;;;18.45;50.30;101401.47;5041871;28;20024;-73
2021/04/07 01:34:19;;;;;;;2.05;0.93;;;;;;;18.50;50.26;101393.63;5044474;28;20021;-75
2021/04/07 01:36:44;;;;;;;2.03;0.80;;;;;;;18.47;50.12;101373.53;5059679;28;20029;-75
2021/04/07 01:39:09;;;;;;;2.15;0.70;;;;;;;18.38;50.18;101346.47;5042656;28;20047;-73
2021/04/07 01:41:35;;;;;;;1.80;0.80;;;;;;;18.39;50.09;101341.22;5021172;28;20033;-75
2021/04/07 01:44:01;;;;;;;1.73;0.88;;;;;;;18.47;50.19;101354.34;5062962;28;20371;-72
2021/04/07 01:46:27;;;;;;;2.42;1.15;;;;;;;18.47;50.25;101344.75;5041700;28;20067;-72
2021/04/07 01:48:53;;;;;;;1.70;0.60;;;;;;;18.38;50.40;101336.88;5041178;28;20033;-73
2021/04/07 01:51:19;;;;;;;2.20;0.60;;;;;;;18.44;50.05;101339.47;5041696;28;20103;-75
2021/04/07 01:53:44;;;;;;;1.42;0.65;;;;;;;18.43;50.26;101340.38;5059503;28;20029;-73
2021/04/07 01:56:10;;;;;;;1.60;0.80;;;;;;;18.43;50.36;101348.25;5025995;28;20059;-76
2021/04/07 01:58:37;;;;;;;2.38;0.82;;;;;;;18.41;50.02;101347.34;5059268;28;20031;-73
2021/04/07 02:01:02;;;;;;;1.90;0.90;;;;;;;18.45;50.06;101351.72;5025032;28;20041;-73
2021/04/07 02:03:28;;;;;;;1.63;0.70;;;;;;;18.44;50.27;101356.94;5028434;28;20029;-74
2021/04/07 02:05:53;;;;;;;1.20;0.63;;;;;;;18.45;50.06;101359.56;5017992;28;20025;-74
2021/04/07 02:08:18;;;;;;;1.90;0.82;;;;;;;18.40;50.17;101350.84;5023565;28;20033;-73
2021/04/07 02:10:44;;;;;;;1.73;1.23;;;;;;;18.46;50.13;101360.44;5032090;28;20484;-73
2021/04/07 02:13:10;;;;;;;1.65;0.85;;;;;;;18.42;50.08;101363.94;5029804;28;20049;-75
2021/04/07 02:15:36;;;;;;;0.98;0.70;;;;;;;18.34;50.19;101350.81;5022481;28;20038;-75
2021/04/07 02:18:01;;;;;;;1.65;0.85;;;;;;;18.45;50.09;101379.63;5016529;28;20032;-75
2021/04/07 02:20:26;;;;;;;2.55;0.88;;;;;;;18.44;50.22;101373.53;5047448;28;20037;-75
2021/04/07 02:22:53;;;;;;;1.55;0.93;;;;;;;18.42;50.36;101366.56;5022912;28;20048;-73
2021/04/07 02:25:18;;;;;;;2.50;1.67;;;;;;;18.38;50.14;101363.03;5026038;28;20484;-74
2021/04/07 02:27:43;;;;;;;1.23;0.70;;;;;;;18.43;50.16;101369.19;5026663;28;20045;-74
2021/04/07 02:30:13;;;;;;;2.20;1.00;;;;;;;18.45;50.07;101395.34;5010082;28;20368;-75
2021/04/07 02:32:38;;;;;;;2.17;0.95;;;;;;;18.50;50.19;101386.66;5022278;28;20362;-74
2021/04/07 02:35:04;;;;;;;2.20;0.82;;;;;;;18.47;49.99;101373.53;5037828;28;20055;-74
2021/04/07 02:37:30;;;;;;;2.08;0.90;;;;;;;18.51;50.03;101393.66;5017936;28;20030;-74
2021/04/07 02:39:55;;;;;;;1.30;0.50;;;;;;;18.55;50.11;101387.56;5026805;28;20033;-74
2021/04/07 02:42:22;;;;;;;1.70;0.95;;;;;;;18.61;50.08;101373.63;5005195;28;20034;-75
2021/04/07 02:44:48;;;;;;;3.30;0.80;;;;;;;18.59;50.04;101364.00;5038209;28;20033;-73
2021/04/07 02:47:13;;;;;;;2.13;0.85;;;;;;;18.61;50.09;101364.88;5022006;28;20077;-73
2021/04/07 02:49:39;;;;;;;1.75;0.52;;;;;;;18.63;50.21;101361.41;5027222;28;20045;-74
2021/04/07 02:52:05;;;;;;;1.52;0.77;;;;;;;18.70;50.00;101343.94;5031018;28;20079;-74
2021/04/07 02:54:32;;;;;;;1.60;0.60;;;;;;;18.70;50.16;101339.59;5032155;28;20395;-74
2021/04/07 02:56:57;;;;;;;0.98;0.60;;;;;;;18.66;50.32;101343.09;5046870;28;20025;-73
2021/04/07 02:59:22;;;;;;;1.25;0.60;;;;;;;18.69;50.27;101344.84;5013098;28;20056;-76
2021/04/07 03:01:48;;;;;;;4.93;0.95;;;;;;;18.74;50.02;101356.19;5029265;28;20022;-75
2021/04/07 03:04:14;;;;;;;2.25;0.70;;;;;;;18.72;49.79;101347.44;5024584;28;20088;-77
2021/04/07 03:06:40;;;;;;;1.08;0.70;;;;;;;18.67;50.09;101344.84;5043107;28;20063;-74
2021/04/07 03:09:05;;;;;;;1.23;0.65;;;;;;;18.65;50.22;101335.22;4999218;28;20026;-73
2021/04/07 03:11:31;;;;;;;2.33;0.60;;;;;;;18.62;50.48;101324.72;5025159;28;20530;-75
2021/04/07 03:13:57;;;;;;;1.75;0.60;;;;;;;18.56;50.24;101320.34;5009691;28;20501;-72
2021/04/07 03:16:22;;;;;;;1.42;0.82;;;;;;;18.55;50.46;101302.88;5025539;28;20045;-75
2021/04/07 03:18:48;;;;;;;2.42;1.00;;;;;;;18.62;50.38;101317.75;5021031;28;20183;-72
2021/04/07 03:21:13;;;;;;;1.58;0.63;;;;;;;18.62;50.50;101312.50;5008816;28;20072;-80
2021/04/07 03:23:39;;;;;;;2.10;1.13;;;;;;;18.57;50.47;101304.59;5021979;28;20029;-74
2021/04/07 03:26:04;;;;;;;2.60;0.90;;;;;;;18.60;50.37;101310.75;5043478;28;20032;-75
2021/04/07 03:28:30;;;;;;;1.25;0.70;;;;;;;18.55;50.79;101297.63;5008718;28;20033;-74
2021/04/07 03:30:55;;;;;;;3.15;0.95;;;;;;;18.53;50.48;101295.00;5043439;28;20483;-74
2021/04/07 03:33:34;;;;;;;1.30;0.70;;;;;;;18.56;50.59;101288.91;5007757;28;20022;-75
2021/04/07 03:36:00;;;;;;;3.00;1.23;;;;;;;18.50;50.45;101286.25;5026333;28;20060;-73
2021/04/07 03:38:26;;;;;;;1.95;0.95;;;;;;;18.49;50.57;101292.38;5027091;28;20025;-73
2021/04/07 03:40:52;;;;;;;2.70;1.00;;;;;;;18.50;50.40;101278.41;5010178;28;20040;-75
2021/04/07 03:43:20;;;;;;;1.77;0.88;;;;;;;18.45;50.55;101264.41;5039674;28;20545;-74
2021/04/07 03:45:47;;;;;;;1.60;0.80;;;;;;;18.41;50.49;101260.06;5024307;28;20068;-74
2021/04/07 03:48:15;;;;;;;2.15;0.70;;;;;;;18.48;50.41;101248.72;5010839;28;20033;-74
2021/04/07 03:50:41;;;;;;;1.15;0.60;;;;;;;18.41;50.15;101234.75;5026883;28;20033;-74
2021/04/07 03:53:08;;;;;;;2.22;0.90;;;;;;;18.43;50.33;101234.75;5009292;28;20021;-74
2021/04/07 03:55:34;;;;;;;2.22;0.90;;;;;;;18.46;50.26;101237.34;5038922;28;20029;-74
2021/04/07 03:58:00;;;;;;;0.90;0.55;;;;;;;18.43;50.33;101222.53;5026199;28;20029;-73
2021/04/07 04:00:25;;;;;;;1.48;0.73;;;;;;;18.44;50.42;101233.84;5039215;28;20028;-75
2021/04/07 04:02:51;;;;;;;3.00;0.90;;;;;;;18.43;50.24;101233.03;5018539;28;20029;-75
2021/04/07 04:05:16;;;;;;;2.10;0.95;;;;;;;18.37;50.59;101221.66;5021655;28;20491;-75
2021/04/07 04:07:42;;;;;;;1.90;0.70;;;;;;;18.40;50.36;101238.25;5043469;28;20017;-74
2021/04/07 04:10:08;;;;;;;3.17;0.90;;;;;;;18.37;50.38;101229.50;5041649;28;20033;-75
2021/04/07 04:12:33;;;;;;;1.40;1.13;;;;;;;18.38;50.11;101218.16;5023433;28;20132;-75
2021/04/07 04:14:59;;;;;;;2.28;1.08;;;;;;;18.40;50.26;101233.00;5004108;28;20037;-74
2021/04/07 04:17:24;;;;;;;1.02;0.50;;;;;;;18.40;50.17;101225.16;5020548;28;20025;-76
2021/04/07 04:19:50;;;;;;;1.85;1.17;;;;;;;18.46;50.13;101213.78;5021650;28;20041;-74
2021/04/07 04:22:16;;;;;;;4.45;1.65;;;;;;;18.46;49.99;101219.91;5021786;28;20510;-75
2021/04/07 04:24:42;;;;;;;3.15;1.00;;;;;;;18.51;50.04;101235.63;5010228;28;20022;-76
2021/04/07 04:27:08;;;;;;;1.75;0.90;;;;;;;18.58;50.04;101232.16;5027554;28;20025;-76
2021/04/07 04:29:34;;;;;;;1.23;0.70;;;;;;;18.56;49.88;101216.41;5006396;28;20031;-76
2021/04/07 04:32:00;;;;;;;1.08;0.52;;;;;;;18.56;49.88;101211.19;5009538;28;20025;-75
2021/04/07 04:34:26;;;;;;;1.55;0.77;;;;;;;18.60;49.72;101212.09;5010631;28;20029;-75
2021/04/07 04:36:51;;;;;;;2.35;1.42;;;;;;;18.65;49.94;101215.59;5040414;28;20021;-77
2021/04/07 04:39:16;;;;;;;2.70;1.00;;;;;;;18.71;49.82;101210.34;5013778;28;20064;-74
2021/04/07 04:41:42;;;;;;;1.58;0.80;;;;;;;18.72;49.51;101222.56;5020053;28;20040;-74
2021/04/07 04:44:07;;;;;;;2.00;0.88;;;;;;;18.74;49.70;101247.03;5025557;28;20529;-74
2021/04/07 04:46:32;;;;;;;1.58;0.68;;;;;;;18.72;49.76;101238.28;5023575;28;20483;-73
2021/04/07 04:48:58;;;;;;;2.47;0.63;;;;;;;18.74;49.74;101222.56;4991589;28;20035;-76
2021/04/07 04:51:23;;;;;;;3.03;0.82;;;;;;;18.82;49.83;101240.06;5009608;28;20088;-73
2021/04/07 04:53:49;;;;;;;2.30;1.33;;;;;;;18.77;49.71;101228.69;5018893;28;20025;-73
2021/04/07 04:56:14;;;;;;;1.77;0.95;;;;;;;18.86;49.61;101238.28;5017409;28;20044;-76
2021/04/07 04:58:39;;;;;;;1.13;0.75;;;;;;;18.88;49.55;101247.91;5006151;28;20379;-76
2021/04/07 05:01:05;;;;;;;2.35;0.90;;;;;;;18.86;49.74;101244.41;5039226;28;20030;-79
2021/04/07 05:03:31;;;;;;;2.40;1.20;;;;;;;18.82;49.75;101247.94;5020062;28;20068;-77
2021/04/07 05:05:56;;;;;;;1.52;0.70;;;;;;;18.83;49.77;101235.66;5021886;28;20045;-77
2021/04/07 05:08:21;;;;;;;1.05;0.63;;;;;;;18.85;49.68;101255.75;5006929;28;20052;-75
2021/04/07 05:10:48;;;;;;;1.35;0.93;;;;;;;18.88;49.72;101268.88;5020988;28;20029;-75
2021/04/07 05:13:13;;;;;;;2.95;1.00;;;;;;;18.87;49.75;101287.22;5019932;28;20394;-75
2021/04/07 05:15:38;;;;;;;2.42;1.42;;;;;;;18.92;49.70;101283.72;5020699;28;20029;-75
2021/04/07 05:18:14;;;;;;;3.67;1.20;;;;;;;18.90;49.61;101272.38;5038780;28;20032;-76
2021/04/07 05:20:41;;;;;;;3.45;1.60;;;;;;;18.92;49.61;101262.78;5019448;28;20356;-75
2021/04/07 05:23:06;;;;;;;3.85;1.50;;;;;;;18.90;49.61;101271.50;5019422;28;20121;-75
2021/04/07 05:25:32;;;;;;;3.97;1.33;;;;;;;18.98;49.67;101269.75;5038225;28;20057;-75
2021/04/07 05:27:57;;;;;;;6.47;1.45;;;;;;;19.01;49.58;101284.59;5010520;28;20103;-75
2021/04/07 05:30:23;;;;;;;4.95;1.55;;;;;;;18.99;49.73;101294.19;5021407;28;20029;-75
2021/04/07 05:32:48;;;;;;;2.70;1.17;;;;;;;19.00;49.55;101290.72;5025301;28;20029;-77
2021/04/07 05:35:14;;;;;;;3.80;1.58;;;;;;;19.02;49.82;101300.31;5019636;28;20413;-75
2021/04/07 05:37:39;;;;;;;2.38;1.35;;;;;;;19.02;49.87;101309.94;5038562;28;20025;-74
2021/04/07 05:40:06;;;;;;;3.78;1.48;;;;;;;19.03;49.80;101314.31;5035071;28;20032;-74
2021/04/07 05:42:31;;;;;;;2.88;1.35;;;;;;;19.10;49.66;101322.16;5001838;28;20163;-74
2021/04/07 05:44:56;;;;;;;5.55;2.70;;;;;;;19.05;49.91;101320.44;5037822;28;20079;-75
2021/04/07 05:47:22;;;;;;;2.33;1.13;;;;;;;19.03;50.06;101314.31;5023554;28;20066;-77
2021/04/07 05:49:47;;;;;;;7.68;1.80;;;;;;;19.07;49.99;101314.31;5012061;28;20036;-76
2021/04/07 05:52:13;;;;;;;2.90;1.33;;;;;;;19.04;49.86;101323.91;5022179;28;20038;-76
2021/04/07 05:54:38;;;;;;;3.47;1.48;;;;;;;19.05;49.90;101330.91;5015934;28;20053;-79
2021/04/07 05:57:04;;;;;;;3.20;1.65;;;;;;;19.08;49.96;101347.53;5022542;28;20029;-75
2021/04/07 05:59:29;;;;;;;3.47;1.88;;;;;;;19.09;49.92;101348.38;5015657;28;20418;-76
2021/04/07 06:01:55;;;;;;;6.15;2.33;;;;;;;19.08;49.95;101344.91;4995484;28;20033;-73
2021/04/07 06:04:20;;;;;;;5.43;2.45;;;;;;;19.06;50.09;101353.63;5027847;28;20520;-73
2021/04/07 06:06:45;;;;;;;6.25;2.00;;;;;;;19.12;49.87;101364.09;5000115;28;20040;-74
2021/04/07 06:09:11;;;;;;;4.32;1.67;;;;;;;19.14;49.56;101362.38;5051374;28;20029;-76
2021/04/07 06:11:36;;;;;;;4.32;1.35;;;;;;;19.14;49.86;101370.22;5014420;28;20021;-73
2021/04/07 06:14:02;;;;;;;4.75;2.58;;;;;;;19.19;49.88;101373.75;5052112;28;20562;-76
2021/04/07 06:16:27;;;;;;;4.97;2.20;;;;;;;19.22;49.78;101382.47;5049847;28;20037;-74
2021/04/07 06:18:53;;;;;;;3.45;2.08;;;;;;;19.20;49.82;101394.72;5024919;28;20361;-74
2021/04/07 06:21:18;;;;;;;5.20;2.45;;;;;;;19.15;50.10;101390.34;5053952;28;20372;-72
2021/04/07 06:23:44;;;;;;;5.28;2.00;;;;;;;19.24;49.84;101403.44;5033677;28;20182;-73
2021/04/07 06:26:09;;;;;;;6.75;3.00;;;;;;;19.22;49.99;101397.31;5015988;28;20029;-73
2021/04/07 06:28:34;;;;;;;2.95;1.55;;;;;;;19.23;50.03;101401.69;5033965;28;20470;-73
2021/04/07 06:31:00;;;;;;;4.05;1.70;;;;;;;19.21;50.20;101412.16;5034545;28;20128;-74
2021/04/07 06:33:28;;;;;;;5.05;1.38;;;;;;;19.22;50.01;101415.66;5032891;28;20025;-74
2021/04/07 06:36:05;;;;;;;10.98;3.15;;;;;;;19.21;49.93;101416.56;5051240;28;20059;-73
2021/04/07 06:38:32;;;;;;;3.88;1.77;;;;;;;19.20;50.04;101438.41;5035225;28;20439;-74
2021/04/07 06:41:01;;;;;;;4.68;1.80;;;;;;;19.26;49.98;101447.16;5024968;28;20057;-74
2021/04/07 06:43:29;;;;;;;3.92;1.75;;;;;;;19.26;49.91;101428.78;5041674;28;20021;-73
2021/04/07 06:45:55;;;;;;;4.45;2.10;;;;;;;19.23;49.95;101448.88;5047392;28;20037;-72
2021/04/07 06:48:21;;;;;;;5.50;2.03;;;;;;;19.24;49.83;101448.00;5052260;28;20021;-73
2021/04/07 06:50:50;;;;;;;3.53;1.65;;;;;;;19.27;50.03;101453.28;5003676;28;20090;-73
2021/04/07 06:53:17;;;;;;;5.30;2.38;;;;;;;19.27;49.69;101469.88;5047858;28;20021;-72
2021/04/07 06:55:43;;;;;;;5.22;1.80;;;;;;;19.23;50.24;101478.59;5047989;28;20344;-74
2021/04/07 06:58:09;;;;;;;5.13;2.05;;;;;;;19.19;49.91;101481.25;5034489;28;20078;-72
2021/04/07 07:00:36;;;;;;;2.25;1.42;;;;;;;19.15;49.90;101480.34;5025943;28;20037;-72
2021/04/07 07:03:04;;;;;;;4.55;2.05;;;;;;;19.16;50.04;101492.59;5051948;28;20056;-75
2021/04/07 07:05:31;;;;;;;4.28;1.92;;;;;;;19.10;50.26;101487.31;5035920;28;20045;-75
2021/04/07 07:08:08;;;;;;;4.88;2.25;;;;;;;19.12;50.20;101505.69;4998900;28;20061;-74
2021/04/07 07:10:37;;;;;;;6.00;2.13;;;;;;;19.11;50.27;101506.53;5027563;28;20040;-74
2021/04/07 07:13:04;;;;;;;4.47;1.75;;;;;;;19.05;50.29;101506.53;5036932;28;20487;-72
2021/04/07 07:15:29;;;;;;;3.08;1.30;;;;;;;19.06;50.20;101506.56;5005379;28;20037;-74
2021/04/07 07:17:55;;;;;;;5.18;1.65;;;;;;;19.04;50.34;101510.91;4998462;28;20075;-74
2021/04/07 07:20:28;;;;;;;4.53;1.48;;;;;;;19.02;50.25;101517.00;5014717;28;20080;-73
2021/04/07 07:22:54;;;;;;;4.13;2.03;;;;;;;18.98;50.22;101508.25;5022040;28;20047;-74
2021/04/07 07:25:19;;;;;;;4.80;2.47;;;;;;;19.02;50.29;101537.97;5041624;28;20475;-74
2021/04/07 07:27:45;;;;;;;3.88;1.95;;;;;;;18.92;50.16;101524.84;5013702;28;20383;-73
2021/04/07 07:30:12;;;;;;;3.95;1.38;;;;;;;19.00;50.10;101537.09;5017610;28;20025;-73
2021/04/07 07:32:39;;;;;;;4.50;1.80;;;;;;;19.00;50.30;101537.09;5014176;28;20116;-74
2021/04/07 07:35:25;;;;;;;2.78;1.70;;;;;;;18.97;50.25;101535.31;5032671;28;20025;-73
2021/04/07 07:37:59;;;;;;;4.80;1.83;;;;;;;18.92;50.32;101560.66;5031256;28;20053;-73
2021/04/07 07:40:25;;;;;;;4.40;2.13;;;;;;;18.89;50.13;101534.44;5017429;28;20231;-74
2021/04/07 07:42:51;;;;;;;3.72;1.65;;;;;;;18.94;50.25;101558.94;5035688;28;20022;-74
2021/04/07 07:45:26;;;;;;;4.53;1.92;;;;;;;18.91;50.43;101558.91;5027411;28;20052;-74
2021/04/07 07:48:12;;;;;;;5.90;2.20;;;;;;;18.93;50.25;101565.03;5019947;28;20028;-74
2021/04/07 07:50:43;;;;;;;4.47;2.10;;;;;;;18.91;50.22;101561.53;5003690;28;20356;-73
2021/04/07 07:53:22;;;;;;;3.58;1.60;;;;;;;18.94;50.10;101577.28;5010497;28;20071;-73
2021/04/07 07:55:52;;;;;;;2.95;1.42;;;;;;;18.96;49.97;101569.38;5029406;28;20112;-73
2021/04/07 07:58:23;;;;;;;3.97;1.70;;;;;;;18.94;49.98;101574.66;5028977;28;20129;-74
2021/04/07 08:00:49;;;;;;;3.22;2.10;;;;;;;18.95;50.22;101591.25;5013759;28;20042;-73
2021/04/07 08:03:15;;;;;;;4.00;1.80;;;;;;;18.90;49.98;101585.97;5024116;28;20030;-73
2021/04/07 08:05:44;;;;;;;3.20;1.20;;;;;;;18.90;50.10;101593.84;5026375;28;20046;-74
2021/04/07 08:08:11;;;;;;;7.38;1.90;;;;;;;18.88;50.17;101599.06;5001415;28;20095;-73
2021/04/07 08:10:38;;;;;;;2.55;1.45;;;;;;;18.90;50.12;101599.97;5003427;28;20091;-73
2021/04/07 08:13:08;;;;;;;4.28;1.80;;;;;;;18.91;50.05;101616.56;5035215;28;20510;-73
2021/04/07 08:15:34;;;;;;;3.70;1.88;;;;;;;18.90;50.01;101625.28;5035747;28;20025;-73
2021/04/07 08:18:00;;;;;;;5.22;2.50;;;;;;;18.87;49.91;101620.91;5006526;28;20029;-73
2021/04/07 08:20:27;;;;;;;4.55;1.98;;;;;;;18.90;49.86;101626.16;5009853;28;20033;-73
2021/04/07 08:22:54;;;;;;;5.80;2.53;;;;;;;18.91;50.03;101627.03;5012801;28;20037;-74
2021/04/07 08:25:21;;;;;;;5.10;2.15;;;;;;;18.91;49.90;101629.66;5029813;28;20030;-74
2021/04/07 08:27:52;;;;;;;4.18;1.63;;;;;;;18.91;49.99;101645.41;5018156;28;20033;-73
2021/04/07 08:30:19;;;;;;;4.13;1.98;;;;;;;18.92;49.90;101647.16;5017573;28;20029;-72
2021/04/07 08:32:47;;;;;;;6.80;2.55;;;;;;;18.88;49.71;101645.38;5025792;28;20056;-73
2021/04/07 08:35:13;;;;;;;3.85;1.40;;;;;;;18.87;49.76;101661.97;5023406;28;20025;-74
2021/04/07 08:37:39;;;;;;;3.00;1.50;;;;;;;18.90;49.87;101659.38;5008296;28;20472;-75
2021/04/07 08:40:13;;;;;;;5.72;2.15;;;;;;;18.90;49.74;101665.47;5014185;28;20029;-75
2021/04/07 08:42:39;;;;;;;6.60;1.73;;;;;;;18.91;49.69;101664.63;4997297;28;20396;-74
2021/04/07 08:45:08;;;;;;;5.00;1.85;;;;;;;18.88;49.75;101669.84;5016410;28;20037;-75
2021/04/07 08:47:42;;;;;;;4.53;1.77;;;;;;;18.91;49.63;101682.97;5006489;28;20040;-74
2021/04/07 08:50:09;;;;;;;3.40;1.58;;;;;;;18.91;49.92;101682.09;5013913;28;20058;-74
2021/04/07 08:52:49;;;;;;;4.05;1.73;;;;;;;18.89;49.68;101673.34;5020489;28;20379;-76
2021/04/07 08:55:18;;;;;;;2.92;1.25;;;;;;;18.87;49.71;101686.41;5030806;28;20056;-74
2021/04/07 08:57:57;;;;;;;7.00;2.00;;;;;;;18.93;49.50;101693.47;5034745;28;20033;-74
2021/04/07 09:00:25;;;;;;;3.83;1.52;;;;;;;18.82;49.71;101688.16;5025109;28;20045;-73
2021/04/07 09:02:58;;;;;;;4.13;1.58;;;;;;;18.87;50.18;101704.75;5034347;28;20069;-74
2021/04/07 09:05:42;;;;;;;3.13;1.60;;;;;;;18.93;49.70;101701.31;5017426;28;20092;-76
2021/04/07 09:08:10;;;;;;;4.05;1.75;;;;;;;18.99;49.52;101716.19;5013536;28;20030;-73
2021/04/07 09:10:41;;;;;;;5.03;2.05;;;;;;;18.96;49.60;101709.19;5006971;28;20094;-72
2021/04/07 09:13:12;;;;;;;4.13;1.90;;;;;;;18.97;49.19;101707.44;5029594;28;20061;-74
2021/04/07 09:15:53;;;;;;;4.38;1.75;;;;;;;18.92;49.45;101713.56;5029034;28;20026;-72
2021/04/07 09:18:37;;;;;;;3.17;1.27;;;;;;;18.92;49.46;101731.03;5034146;28;20025;-75
2021/04/07 09:21:05;;;;;;;4.63;1.80;;;;;;;18.92;49.43;101734.53;5010331;28;20025;-74
2021/04/07 09:23:34;;;;;;;6.65;1.70;;;;;;;18.86;49.62;101726.59;5034438;28;20025;-73
2021/04/07 09:26:06;;;;;;;3.38;1.58;;;;;;;18.87;49.71;101732.72;5031545;28;20056;-72
2021/04/07 09:28:40;;;;;;;3.20;1.60;;;;;;;18.83;49.62;101734.44;5030330;28;20029;-72
2021/04/07 09:31:10;;;;;;;4.55;2.35;;;;;;;18.83;49.27;101737.03;5028983;28;20057;-74
2021/04/07 09:33:38;;;;;;;4.65;2.03;;;;;;;18.80;49.60;101739.66;5016081;28;20475;-73
2021/04/07 09:36:05;;;;;;;2.83;1.30;;;;;;;18.80;49.69;101750.16;5012929;28;20352;-72
2021/04/07 09:38:31;;;;;;;3.50;1.98;;;;;;;18.80;49.63;101744.91;4982999;28;20544;-71
2021/04/07 09:41:08;;;;;;;3.22;1.10;;;;;;;18.79;49.71;101755.38;4996234;28;20029;-74
2021/04/07 09:43:35;;;;;;;2.47;1.23;;;;;;;18.74;49.79;101757.94;5011639;28;20028;-74
2021/04/07 09:46:00;;;;;;;3.15;2.15;;;;;;;18.79;49.66;101771.09;5006877;28;20471;-74
2021/04/07 09:48:46;;;;;;;3.75;1.55;;;;;;;18.79;49.60;101766.72;5031126;28;20033;-73
2021/04/07 09:51:30;;;;;;;5.60;1.75;;;;;;;18.78;49.52;101767.59;5033215;28;20025;-73
2021/04/07 09:54:11;;;;;;;4.70;2.08;;;;;;;18.77;49.54;101772.81;5033939;28;20029;-73
2021/04/07 09:56:51;;;;;;;3.03;1.40;;;;;;;18.76;49.79;101776.31;5014755;28;20036;-75
2021/04/07 09:59:18;;;;;;;4.53;1.45;;;;;;;18.75;49.75;101771.94;4998180;28;20037;-73
2021/04/07 10:01:43;;;;;;;3.85;1.33;;;;;;;18.76;49.70;101768.44;5032055;28;20122;-73
2021/04/07 10:04:09;;;;;;;2.03;1.15;;;;;;;18.75;49.50;101777.16;5016741;28;20483;-75
2021/04/07 10:06:35;;;;;;;4.18;1.55;;;;;;;18.75;49.29;101771.94;5015011;28;20471;-74
2021/04/07 10:09:09;;;;;;;5.05;1.77;;;;;;;18.76;49.69;101781.53;5003650;28;20026;-75
2021/04/07 10:11:42;;;;;;;5.40;2.33;;;;;;;18.74;49.48;101775.41;4996632;28;20383;-74
2021/04/07 10:14:10;;;;;;;3.50;1.30;;;;;;;18.73;49.63;101779.78;5028264;28;20037;-72
2021/04/07 10:16:37;;;;;;;3.13;1.48;;;;;;;18.72;49.45;101769.28;5033154;28;20029;-74
2021/04/07 10:19:11;;;;;;;3.47;1.38;;;;;;;18.77;49.58;101786.81;5013722;28;20022;-73
2021/04/07 10:21:40;;;;;;;1.83;1.17;;;;;;;18.75;49.37;101785.91;4996796;28;20026;-74
2021/04/07 10:24:07;;;;;;;3.33;1.50;;;;;;;18.75;49.35;101793.75;5016575;28;20395;-75
2021/04/07 10:26:39;;;;;;;4.03;1.80;;;;;;;18.71;49.60;101791.09;5000059;28;20037;-75
2021/04/07 10:29:05;;;;;;;2.88;1.35;;;;;;;18.77;49.19;101796.41;5005990;28;20065;-75
2021/04/07 10:31:31;;;;;;;7.18;2.05;;;;;;;18.76;49.39;101786.78;4991069;28;20096;-73
2021/04/07 10:34:07;;;;;;;2.58;1.50;;;;;;;18.77;49.32;101799.91;5007047;28;20112;-74
2021/04/07 10:36:34;;;;;;;5.13;2.05;;;;;;;18.77;49.26;101802.53;4998415;28;20029;-72
2021/04/07 10:39:12;;;;;;;2.75;1.50;;;;;;;18.77;49.27;101809.50;5013745;28;20057;-74
2021/04/07 10:41:37;;;;;;;3.95;1.65;;;;;;;18.76;49.32;101800.75;5012120;28;20068;-73
2021/04/07 10:44:03;;;;;;;4.05;1.60;;;;;;;18.72;49.25;101801.59;5023274;28;20026;-74
2021/04/07 10:46:30;;;;;;;3.17;1.80;;;;;;;18.75;49.23;101798.13;4982959;28;20049;-74
2021/04/07 10:48:57;;;;;;;4.80;1.77;;;;;;;18.72;49.31;101808.56;5004136;28;20475;-73
2021/04/07 10:51:24;;;;;;;2.30;1.10;;;;;;;18.78;49.17;101825.25;5021412;28;20472;-73
2021/04/07 10:53:55;;;;;;;3.35;1.50;;;;;;;18.77;49.20;101817.38;5016256;28;20106;-71
2021/04/07 10:56:22;;;;;;;5.00;2.20;;;;;;;18.81;49.16;101835.75;5029707;28;20056;-73
2021/04/07 10:58:58;;;;;;;3.08;1.27;;;;;;;18.77;49.06;101831.34;5019689;28;20030;-74
2021/04/07 11:01:34;;;;;;;2.47;1.55;;;;;;;18.79;49.19;101831.38;5029321;28;20030;-72
2021/04/07 11:04:13;;;;;;;2.15;0.93;;;;;;;18.82;49.15;101849.75;5031601;28;20437;-73
2021/04/07 11:06:39;;;;;;;4.50;1.58;;;;;;;18.83;48.92;101848.84;5034123;28;20067;-72
2021/04/07 11:09:05;;;;;;;4.10;1.73;;;;;;;18.82;49.04;101850.63;5052742;28;20424;-74
2021/04/07 11:11:30;;;;;;;3.35;1.50;;;;;;;18.79;49.13;101845.34;5041466;28;20494;-73
2021/04/07 11:13:56;;;;;;;1.90;0.95;;;;;;;18.80;49.11;101854.09;5033438;28;20034;-71
2021/04/07 11:16:32;;;;;;;3.10;1.20;;;;;;;18.81;49.11;101859.34;5035010;28;20554;-73
2021/04/07 11:18:58;;;;;;;3.85;1.80;;;;;;;18.78;49.02;101848.84;5001665;28;20072;-74
2021/04/07 11:21:23;;;;;;;3.33;1.23;;;;;;;18.80;48.87;101859.34;5018532;28;20030;-73
2021/04/07 11:23:49;;;;;;;2.72;1.20;;;;;;;18.80;48.98;101869.81;4980151;28;20025;-74
2021/04/07 11:26:14;;;;;;;5.43;1.65;;;;;;;18.82;48.86;101871.59;5021714;28;20431;-74